NCAR-RAP Real-Time Weather Data

Output produced by METARs form (06 May 2021  15:35 UTC)
found at http://weather.rap.ucar.edu/surface/
 
KCMH 061451Z 00000KT 10SM FEW040 BKN140 BKN250 12/03 A3014 RMK AO2 SLP209 T01220033 50000
KCMH 061351Z 20004KT 10SM SCT150 BKN250 11/04 A3016 RMK AO2 SLP215 T01060044
KCMH 061251Z 22003KT 10SM BKN250 09/06 A3015 RMK AO2 SLP214 T00890056
KCMH 061151Z 00000KT 10SM BKN240 06/05 A3014 RMK AO2 SLP210 T00610050 10061 20028 53005
KCMH 061051Z 00000KT 10SM BKN240 04/03 A3015 RMK AO2 SLP211 T00390028
KCMH 060951Z 00000KT 10SM SCT240 03/02 A3012 RMK AO2 SLP204 T00330022
KCMH 060851Z 00000KT 10SM FEW250 03/02 A3013 RMK AO2 SLP205 T00330022 55001
KCMH 060751Z 00000KT 10SM FEW250 03/03 A3012 RMK AO2 SLP204 T00330028
KCMH 060651Z 00000KT 10SM FEW250 04/03 A3012 RMK AO2 SLP203 T00440033
KCMH 060551Z 00000KT 10SM CLR 05/03 A3013 RMK AO2 SLP206 T00500033 10106 20044 53001
KCMH 060451Z 00000KT 10SM CLR 05/03 A3013 RMK AO2 SLP205 T00500033 401560050
KCMH 060351Z 06003KT 10SM CLR 05/04 A3013 RMK AO2 SLP205 T00500039
KCMH 060251Z 00000KT 10SM CLR 07/04 A3013 RMK AO2 SLP205 T00670039 51012
KCMH 060151Z 07003KT 10SM FEW055 08/03 A3012 RMK AO2 SLP201 T00830033
KCMH 060051Z 02003KT 10SM FEW050 09/02 A3010 RMK AO2 SLP195 T00890022
KCMH 052351Z 35010KT 10SM SCT050 11/02 A3009 RMK AO2 SLP191 T01060017 10156 20106 51022